Time;durP1;ratioP1;P1;durP2;ratioP2;P2;SDS_P1;SDS_P2;PMS_P1;PMS_P2;Temp;Humidity;BMP_temperature;BMP_pressure;BME280_temperature;BME280_humidity;BME280_pressure;Samples;Min_cycle;Max_cycle;Signal;HPM_P1;HPM_P2
2023/07/25 00:00:19;;;;;;;10.03;4.37;;;;;;;;;;5132437;27;20019;-46
2023/07/25 00:02:45;;;;;;;13.88;4.35;;;;;;;;;;5131552;27;20296;-46
2023/07/25 00:05:10;;;;;;;7.87;3.70;;;;;;;;;;5102877;27;21208;-46
2023/07/25 00:07:35;;;;;;;11.40;3.93;;;;;;;;;;5128383;27;20014;-46
2023/07/25 00:10:00;;;;;;;5.80;3.90;;;;;;;;;;5127442;27;20114;-47
2023/07/25 00:12:26;;;;;;;7.37;3.53;;;;;;;;;;5125333;27;20275;-46
2023/07/25 00:14:51;;;;;;;7.73;4.43;;;;;;;;;;5125041;27;20106;-46
2023/07/25 00:17:16;;;;;;;8.50;3.63;;;;;;;;;;5137644;27;20430;-46
2023/07/25 00:19:41;;;;;;;6.10;3.33;;;;;;;;;;5139299;27;20277;-46
2023/07/25 00:22:07;;;;;;;14.37;4.83;;;;;;;;;;5117092;27;20031;-47
2023/07/25 00:24:32;;;;;;;10.83;4.00;;;;;;;;;;5123187;27;20294;-46
2023/07/25 00:26:57;;;;;;;7.23;3.63;;;;;;;;;;5128724;27;20299;-46
2023/07/25 00:29:22;;;;;;;12.13;4.17;;;;;;;;;;5134930;27;20271;-46
2023/07/25 00:31:48;;;;;;;10.00;3.60;;;;;;;;;;5124192;27;20273;-47
2023/07/25 00:34:13;;;;;;;7.40;4.07;;;;;;;;;;5127880;27;20260;-46
2023/07/25 00:36:38;;;;;;;8.77;3.60;;;;;;;;;;5130054;27;20034;-46
2023/07/25 00:39:04;;;;;;;7.03;3.40;;;;;;;;;;5125598;27;20434;-45
2023/07/25 00:41:29;;;;;;;7.20;3.78;;;;;;;;;;5127490;27;20408;-45
2023/07/25 00:43:54;;;;;;;7.47;3.53;;;;;;;;;;5126093;27;20034;-46
2023/07/25 00:46:19;;;;;;;7.43;4.07;;;;;;;;;;5126532;27;20877;-45
2023/07/25 00:48:45;;;;;;;8.95;3.95;;;;;;;;;;5127907;27;20029;-46
2023/07/25 00:51:10;;;;;;;6.75;3.78;;;;;;;;;;5125943;27;20023;-46
2023/07/25 00:53:35;;;;;;;9.00;3.50;;;;;;;;;;5129310;27;20017;-45
2023/07/25 00:56:03;;;;;;;5.80;3.30;;;;;;;;;;5119881;27;20027;-46
2023/07/25 00:58:29;;;;;;;7.85;3.42;;;;;;;;;;5127184;27;20023;-45
2023/07/25 01:01:02;;;;;;;6.45;3.40;;;;;;;;;;5124660;27;20023;-46
2023/07/25 01:03:27;;;;;;;7.53;3.63;;;;;;;;;;5124827;27;20023;-45
2023/07/25 01:05:53;;;;;;;5.43;2.95;;;;;;;;;;5127378;27;20077;-45
2023/07/25 01:08:18;;;;;;;7.22;3.67;;;;;;;;;;5113791;27;20034;-45
2023/07/25 01:10:43;;;;;;;7.37;2.73;;;;;;;;;;5124457;27;20030;-46
2023/07/25 01:13:09;;;;;;;5.00;2.73;;;;;;;;;;5108727;27;20276;-45
2023/07/25 01:15:34;;;;;;;7.57;3.03;;;;;;;;;;5119589;27;20015;-45
2023/07/25 01:17:59;;;;;;;5.60;3.13;;;;;;;;;;5127640;27;20023;-46
2023/07/25 01:20:25;;;;;;;6.40;2.95;;;;;;;;;;5123512;27;20037;-45
2023/07/25 01:22:51;;;;;;;5.07;3.20;;;;;;;;;;5127227;27;20008;-46
2023/07/25 01:25:16;;;;;;;8.23;3.55;;;;;;;;;;5119627;27;20030;-45
2023/07/25 01:27:41;;;;;;;4.93;3.13;;;;;;;;;;5122941;27;20023;-45
2023/07/25 01:30:07;;;;;;;7.40;3.28;;;;;;;;;;5123175;27;20025;-45
2023/07/25 01:32:32;;;;;;;6.13;3.08;;;;;;;;;;5125050;27;20083;-46
2023/07/25 01:34:58;;;;;;;7.03;3.00;;;;;;;;;;5125266;27;20023;-45
2023/07/25 01:37:23;;;;;;;4.57;3.05;;;;;;;;;;5123868;27;20090;-45
2023/07/25 01:39:48;;;;;;;15.23;4.45;;;;;;;;;;5125800;27;20023;-45
2023/07/25 01:42:14;;;;;;;6.93;3.27;;;;;;;;;;5119657;27;20030;-45
2023/07/25 01:44:39;;;;;;;12.65;3.83;;;;;;;;;;5124902;27;20110;-45
2023/07/25 01:47:04;;;;;;;5.93;2.90;;;;;;;;;;5121266;27;20019;-45
2023/07/25 01:49:30;;;;;;;9.27;3.70;;;;;;;;;;5125642;27;20019;-45
2023/07/25 01:51:55;;;;;;;6.57;3.03;;;;;;;;;;5123235;27;20024;-46
2023/07/25 01:54:20;;;;;;;7.47;3.10;;;;;;;;;;5132381;27;20034;-45
2023/07/25 01:56:45;;;;;;;9.33;3.40;;;;;;;;;;5123600;27;20289;-45
2023/07/25 01:59:11;;;;;;;5.00;2.50;;;;;;;;;;5127482;27;20272;-45
2023/07/25 02:01:36;;;;;;;7.85;2.97;;;;;;;;;;5116394;27;20320;-45
2023/07/25 02:04:02;;;;;;;7.20;2.97;;;;;;;;;;5120798;27;20438;-45
2023/07/25 02:06:27;;;;;;;7.28;3.03;;;;;;;;;;5126088;27;20296;-45
2023/07/25 02:08:52;;;;;;;3.30;1.83;;;;;;;;;;5127907;27;20031;-46
2023/07/25 02:11:17;;;;;;;10.50;3.73;;;;;;;;;;5126500;27;20360;-45
2023/07/25 02:13:43;;;;;;;7.73;3.07;;;;;;;;;;5124652;27;20279;-45
2023/07/25 02:16:08;;;;;;;7.73;3.70;;;;;;;;;;5117691;27;20344;-46
2023/07/25 02:18:33;;;;;;;5.97;3.00;;;;;;;;;;5123755;27;20268;-46
2023/07/25 02:20:59;;;;;;;5.43;2.37;;;;;;;;;;5124186;27;20034;-45
2023/07/25 02:23:24;;;;;;;9.30;3.22;;;;;;;;;;5116336;27;20272;-45
2023/07/25 02:25:49;;;;;;;10.77;3.37;;;;;;;;;;5126058;27;20019;-45
2023/07/25 02:28:15;;;;;;;5.93;2.78;;;;;;;;;;5130789;27;20693;-45
2023/07/25 02:30:40;;;;;;;6.70;3.30;;;;;;;;;;5125764;27;20400;-45
2023/07/25 02:33:05;;;;;;;5.13;2.80;;;;;;;;;;5121252;27;20031;-45
2023/07/25 02:35:31;;;;;;;7.63;3.33;;;;;;;;;;5129526;27;20339;-46
2023/07/25 02:37:56;;;;;;;6.95;4.07;;;;;;;;;;5117364;27;20380;-47
2023/07/25 02:40:21;;;;;;;8.97;4.40;;;;;;;;;;5117419;27;20489;-45
2023/07/25 02:42:46;;;;;;;6.33;3.77;;;;;;;;;;5121232;27;20062;-45
2023/07/25 02:45:12;;;;;;;8.30;4.30;;;;;;;;;;5120689;27;20034;-46
2023/07/25 02:47:37;;;;;;;7.97;4.05;;;;;;;;;;5130685;27;20762;-45
2023/07/25 02:50:02;;;;;;;9.83;4.23;;;;;;;;;;5120582;27;20031;-45
2023/07/25 02:52:27;;;;;;;9.50;4.55;;;;;;;;;;5119539;27;20410;-45
2023/07/25 02:54:53;;;;;;;9.20;4.40;;;;;;;;;;5125094;27;20178;-45
2023/07/25 02:57:18;;;;;;;10.47;4.70;;;;;;;;;;5115608;27;20273;-45
2023/07/25 02:59:43;;;;;;;13.10;5.60;;;;;;;;;;5119293;27;20654;-45
2023/07/25 03:02:10;;;;;;;9.20;5.28;;;;;;;;;;5123416;27;20279;-46
2023/07/25 03:04:35;;;;;;;10.70;5.07;;;;;;;;;;5121585;27;20035;-45
2023/07/25 03:07:00;;;;;;;12.10;5.47;;;;;;;;;;5126942;27;20035;-47
2023/07/25 03:09:26;;;;;;;13.30;5.63;;;;;;;;;;5128351;27;20574;-45
2023/07/25 03:11:51;;;;;;;8.03;5.13;;;;;;;;;;5130720;27;20271;-46
2023/07/25 03:14:16;;;;;;;10.87;5.40;;;;;;;;;;5132257;27;20027;-45
2023/07/25 03:16:41;;;;;;;11.07;5.47;;;;;;;;;;5129569;27;20474;-48
2023/07/25 03:19:07;;;;;;;9.43;5.37;;;;;;;;;;5131686;27;20283;-45
2023/07/25 03:21:32;;;;;;;18.23;6.47;;;;;;;;;;5115987;27;20273;-44
2023/07/25 03:23:57;;;;;;;20.37;6.17;;;;;;;;;;5115285;27;20585;-45
2023/07/25 03:26:22;;;;;;;13.97;6.30;;;;;;;;;;5131356;27;20281;-46
2023/07/25 03:28:48;;;;;;;11.40;5.88;;;;;;;;;;5132596;27;20745;-45
2023/07/25 03:31:13;;;;;;;11.57;5.53;;;;;;;;;;5128057;27;20023;-45
2023/07/25 03:33:38;;;;;;;6.15;3.60;;;;;;;;;;5115941;27;20739;-45
2023/07/25 03:36:04;;;;;;;9.20;5.33;;;;;;;;;;5121315;27;20031;-46
2023/07/25 03:38:29;;;;;;;8.27;5.30;;;;;;;;;;5123856;27;20264;-45
2023/07/25 03:40:55;;;;;;;11.10;5.40;;;;;;;;;;5125448;27;20035;-45
2023/07/25 03:43:20;;;;;;;10.37;4.83;;;;;;;;;;5129704;27;20268;-46
2023/07/25 03:45:46;;;;;;;10.52;6.15;;;;;;;;;;5128719;27;20042;-47
2023/07/25 03:48:11;;;;;;;22.02;5.85;;;;;;;;;;5128450;27;20553;-48
2023/07/25 03:50:36;;;;;;;8.13;4.77;;;;;;;;;;5129586;27;20027;-46
2023/07/25 03:53:02;;;;;;;12.17;5.47;;;;;;;;;;5125555;27;20030;-45
2023/07/25 03:55:27;;;;;;;11.88;5.65;;;;;;;;;;5132038;27;20098;-47
2023/07/25 03:57:52;;;;;;;10.98;5.20;;;;;;;;;;5124433;27;20027;-45
2023/07/25 04:00:17;;;;;;;10.33;5.80;;;;;;;;;;5124119;27;20114;-46
2023/07/25 04:02:43;;;;;;;13.55;6.00;;;;;;;;;;5119283;27;20276;-45
2023/07/25 04:05:08;;;;;;;14.73;6.18;;;;;;;;;;5124063;27;20401;-45
2023/07/25 04:07:34;;;;;;;6.22;3.10;;;;;;;;;;5125580;27;20122;-47
2023/07/25 04:09:59;;;;;;;14.20;6.25;;;;;;;;;;5111862;27;20373;-46
2023/07/25 04:12:25;;;;;;;8.73;5.18;;;;;;;;;;5125303;27;20023;-45
2023/07/25 04:14:50;;;;;;;12.48;4.47;;;;;;;;;;5125932;27;20014;-48
2023/07/25 04:17:15;;;;;;;11.13;4.73;;;;;;;;;;5123094;27;20027;-48
2023/07/25 04:19:40;;;;;;;10.20;5.03;;;;;;;;;;5119465;27;20638;-46
2023/07/25 04:22:06;;;;;;;10.60;4.50;;;;;;;;;;5125634;27;20346;-48
2023/07/25 04:24:31;;;;;;;9.90;4.33;;;;;;;;;;5131083;27;20782;-45
2023/07/25 04:26:56;;;;;;;13.60;5.40;;;;;;;;;;5129289;27;20019;-45
2023/07/25 04:29:21;;;;;;;11.10;5.23;;;;;;;;;;5126270;27;20336;-48
2023/07/25 04:31:47;;;;;;;12.07;5.27;;;;;;;;;;5123162;27;20316;-45
2023/07/25 04:34:12;;;;;;;14.10;5.28;;;;;;;;;;5127466;27;20268;-45
2023/07/25 04:36:37;;;;;;;12.10;5.32;;;;;;;;;;5120913;27;20023;-45
2023/07/25 04:39:03;;;;;;;11.10;4.77;;;;;;;;;;5109760;27;20071;-47
2023/07/25 04:41:28;;;;;;;10.60;4.87;;;;;;;;;;5126874;27;20763;-45
2023/07/25 04:43:53;;;;;;;10.33;4.80;;;;;;;;;;5125991;27;20273;-45
2023/07/25 04:46:19;;;;;;;10.48;4.63;;;;;;;;;;5107545;27;20325;-45
2023/07/25 04:48:44;;;;;;;10.27;4.73;;;;;;;;;;5129328;27;20380;-45
2023/07/25 04:51:09;;;;;;;7.00;4.07;;;;;;;;;;5129289;27;20274;-46
2023/07/25 04:53:34;;;;;;;7.03;3.92;;;;;;;;;;5126581;27;20076;-45
2023/07/25 04:56:00;;;;;;;6.47;3.67;;;;;;;;;;5120112;27;20031;-45
2023/07/25 04:58:25;;;;;;;6.80;3.67;;;;;;;;;;5128420;27;20038;-45
2023/07/25 05:00:50;;;;;;;9.30;3.83;;;;;;;;;;5121893;27;20015;-45
2023/07/25 05:03:15;;;;;;;8.45;3.47;;;;;;;;;;5124006;27;20247;-45
2023/07/25 05:05:41;;;;;;;9.93;3.67;;;;;;;;;;5127374;27;20026;-45
2023/07/25 05:08:06;;;;;;;6.83;3.47;;;;;;;;;;5124964;27;20762;-45
2023/07/25 05:10:31;;;;;;;10.47;4.97;;;;;;;;;;5130618;27;20268;-45
2023/07/25 05:12:57;;;;;;;8.75;5.75;;;;;;;;;;5111376;27;20746;-45
2023/07/25 05:15:23;;;;;;;8.32;3.88;;;;;;;;;;5122904;27;20076;-45
2023/07/25 05:17:48;;;;;;;7.90;3.17;;;;;;;;;;5124276;27;20026;-45
2023/07/25 05:20:13;;;;;;;8.75;3.22;;;;;;;;;;5122776;27;20480;-45
2023/07/25 05:22:38;;;;;;;7.18;3.40;;;;;;;;;;5126506;27;20587;-45
2023/07/25 05:25:04;;;;;;;9.10;4.63;;;;;;;;;;5130112;27;20042;-45
2023/07/25 05:27:29;;;;;;;7.60;3.28;;;;;;;;;;5127109;27;20393;-45
2023/07/25 05:29:54;;;;;;;7.97;3.77;;;;;;;;;;5116303;27;20478;-45
2023/07/25 05:32:21;;;;;;;9.23;3.40;;;;;;;;;;5115803;27;20031;-45
2023/07/25 05:34:46;;;;;;;10.48;3.85;;;;;;;;;;5127651;27;20496;-45
2023/07/25 05:37:11;;;;;;;15.50;7.80;;;;;;;;;;5120403;27;20035;-46
2023/07/25 05:39:36;;;;;;;7.03;3.63;;;;;;;;;;5132224;27;20348;-45
2023/07/25 05:42:02;;;;;;;7.13;3.73;;;;;;;;;;5124645;27;20030;-46
2023/07/25 05:44:27;;;;;;;11.05;3.10;;;;;;;;;;5129138;27;20281;-46
2023/07/25 05:46:52;;;;;;;11.63;3.23;;;;;;;;;;5128668;27;20068;-47
2023/07/25 05:49:17;;;;;;;10.87;3.47;;;;;;;;;;5131056;27;20261;-45
2023/07/25 05:51:43;;;;;;;6.33;2.77;;;;;;;;;;5124222;27;20268;-45
2023/07/25 05:54:08;;;;;;;8.00;3.40;;;;;;;;;;5118112;27;20634;-45
2023/07/25 05:56:33;;;;;;;4.95;2.95;;;;;;;;;;5124767;27;20361;-45
2023/07/25 05:58:59;;;;;;;7.27;2.60;;;;;;;;;;5119977;27;20115;-45
2023/07/25 06:01:24;;;;;;;7.10;3.00;;;;;;;;;;5121307;27;20273;-46
2023/07/25 06:03:49;;;;;;;5.28;2.40;;;;;;;;;;5122845;27;20081;-45
2023/07/25 06:06:15;;;;;;;11.47;3.17;;;;;;;;;;5119262;27;20050;-45
2023/07/25 06:08:40;;;;;;;7.00;2.57;;;;;;;;;;5121237;27;20015;-45
2023/07/25 06:11:05;;;;;;;7.07;2.17;;;;;;;;;;5127278;27;20379;-45
2023/07/25 06:13:33;;;;;;;7.50;2.50;;;;;;;;;;5118890;27;20023;-46
2023/07/25 06:15:58;;;;;;;5.07;2.88;;;;;;;;;;5123160;27;20256;-45
2023/07/25 06:18:23;;;;;;;11.15;2.92;;;;;;;;;;5121221;27;20022;-45
2023/07/25 06:20:49;;;;;;;6.27;2.50;;;;;;;;;;5118429;27;20031;-47
2023/07/25 06:23:14;;;;;;;5.83;2.60;;;;;;;;;;5123509;27;20026;-45
2023/07/25 06:25:40;;;;;;;7.28;2.75;;;;;;;;;;5113724;27;20325;-45
2023/07/25 06:28:05;;;;;;;7.45;2.58;;;;;;;;;;5114765;27;20039;-45
2023/07/25 06:30:31;;;;;;;8.25;2.28;;;;;;;;;;5116538;27;20019;-45
2023/07/25 06:32:56;;;;;;;4.63;2.10;;;;;;;;;;5109755;27;20072;-45
2023/07/25 06:35:22;;;;;;;7.90;1.80;;;;;;;;;;5130335;27;20033;-45
2023/07/25 06:37:48;;;;;;;8.02;2.10;;;;;;;;;;5121717;27;20285;-46
2023/07/25 06:40:13;;;;;;;3.63;1.70;;;;;;;;;;5116059;27;20011;-45
2023/07/25 06:42:39;;;;;;;9.55;1.92;;;;;;;;;;5112109;27;20024;-46
2023/07/25 06:45:04;;;;;;;3.08;1.38;;;;;;;;;;5100416;27;20027;-46
2023/07/25 06:47:29;;;;;;;5.10;1.70;;;;;;;;;;5121511;27;20623;-45
2023/07/25 06:49:58;;;;;;;3.53;1.65;;;;;;;;;;5090848;28;20060;-45
2023/07/25 06:52:23;;;;;;;6.03;1.70;;;;;;;;;;5101276;28;20027;-45
2023/07/25 06:54:49;;;;;;;5.37;1.37;;;;;;;;;;5102821;28;20020;-46
2023/07/25 06:57:14;;;;;;;5.63;1.30;;;;;;;;;;5094574;28;20030;-47
2023/07/25 06:59:39;;;;;;;4.10;1.20;;;;;;;;;;5097761;28;20444;-45
2023/07/25 07:02:05;;;;;;;7.47;1.60;;;;;;;;;;5097403;28;20077;-45
2023/07/25 07:04:30;;;;;;;5.32;1.98;;;;;;;;;;5090217;28;20354;-45
2023/07/25 07:06:56;;;;;;;5.53;1.90;;;;;;;;;;5102975;28;20034;-45
2023/07/25 07:09:21;;;;;;;7.43;1.97;;;;;;;;;;5107525;28;20262;-47
2023/07/25 07:11:46;;;;;;;5.63;2.10;;;;;;;;;;5109193;28;20023;-45
2023/07/25 07:14:11;;;;;;;7.43;1.40;;;;;;;;;;5097267;28;20046;-45
2023/07/25 07:16:37;;;;;;;6.57;1.87;;;;;;;;;;5098212;28;20031;-45
2023/07/25 07:19:02;;;;;;;4.68;1.30;;;;;;;;;;5089780;28;20296;-45
2023/07/25 07:21:27;;;;;;;5.17;2.60;;;;;;;;;;5108675;28;20028;-46
2023/07/25 07:23:53;;;;;;;5.77;1.23;;;;;;;;;;5108705;28;20266;-47
2023/07/25 07:26:18;;;;;;;4.90;1.60;;;;;;;;;;5100300;28;20053;-45
2023/07/25 07:28:43;;;;;;;3.47;1.50;;;;;;;;;;5111047;28;20012;-48
2023/07/25 07:31:09;;;;;;;2.53;1.40;;;;;;;;;;5096125;28;20303;-45
2023/07/25 07:33:35;;;;;;;3.50;1.45;;;;;;;;;;5099050;28;20019;-47
2023/07/25 07:36:00;;;;;;;5.28;1.60;;;;;;;;;;5109462;28;20030;-46
2023/07/25 07:38:25;;;;;;;5.90;1.20;;;;;;;;;;5099341;28;20032;-45
2023/07/25 07:40:50;;;;;;;4.07;1.73;;;;;;;;;;5097964;28;20270;-45
2023/07/25 07:43:16;;;;;;;3.77;1.23;;;;;;;;;;5104164;28;20352;-45
2023/07/25 07:45:41;;;;;;;2.47;1.20;;;;;;;;;;5103884;28;20031;-46
2023/07/25 07:48:06;;;;;;;2.80;1.20;;;;;;;;;;5104551;28;20035;-45
2023/07/25 07:50:33;;;;;;;5.10;1.43;;;;;;;;;;5111168;27;20269;-47
2023/07/25 07:52:58;;;;;;;5.60;1.30;;;;;;;;;;5113492;27;20019;-46
2023/07/25 07:55:24;;;;;;;4.32;1.13;;;;;;;;;;5110478;27;20523;-45
2023/07/25 07:57:49;;;;;;;6.17;1.33;;;;;;;;;;5114401;27;20041;-45
2023/07/25 08:00:15;;;;;;;4.20;1.00;;;;;;;;;;5116074;27;20771;-48
2023/07/25 08:02:40;;;;;;;2.72;1.25;;;;;;;;;;5102303;27;20297;-47
2023/07/25 08:05:06;;;;;;;5.35;1.30;;;;;;;;;;5106983;28;20040;-45
2023/07/25 08:07:31;;;;;;;7.72;2.45;;;;;;;;;;5113716;27;20015;-45
2023/07/25 08:09:57;;;;;;;2.50;1.00;;;;;;;;;;5109213;27;20023;-48
2023/07/25 08:12:22;;;;;;;4.70;1.27;;;;;;;;;;5110012;27;20277;-46
2023/07/25 08:14:48;;;;;;;2.25;1.05;;;;;;;;;;5114978;27;20600;-46
2023/07/25 08:17:13;;;;;;;5.50;2.03;;;;;;;;;;5110787;27;20018;-46
2023/07/25 08:19:39;;;;;;;5.30;2.15;;;;;;;;;;5113299;27;20482;-45
2023/07/25 08:22:04;;;;;;;4.38;1.27;;;;;;;;;;5099358;27;20055;-46
2023/07/25 08:24:29;;;;;;;10.60;1.57;;;;;;;;;;5101167;28;20054;-48
2023/07/25 08:26:55;;;;;;;5.30;2.15;;;;;;;;;;5113380;27;20341;-48
2023/07/25 08:29:20;;;;;;;4.60;1.50;;;;;;;;;;5098048;27;20024;-47
2023/07/25 08:31:45;;;;;;;9.77;1.87;;;;;;;;;;5103052;27;21034;-46
2023/07/25 08:34:10;;;;;;;2.07;0.90;;;;;;;;;;5105920;28;20073;-46
2023/07/25 08:36:36;;;;;;;6.37;1.03;;;;;;;;;;5113039;27;20658;-45
2023/07/25 08:39:01;;;;;;;0.77;0.43;;;;;;;;;;5109810;27;20034;-45
2023/07/25 08:41:29;;;;;;;6.40;1.30;;;;;;;;;;5104568;27;20059;-45
2023/07/25 08:43:58;;;;;;;2.83;1.40;;;;;;;;;;5110393;27;20023;-45
2023/07/25 08:46:26;;;;;;;8.85;1.17;;;;;;;;;;5111636;27;20072;-45
2023/07/25 08:48:55;;;;;;;2.40;1.13;;;;;;;;;;5091184;28;20024;-46
2023/07/25 08:51:21;;;;;;;6.00;1.65;;;;;;;;;;5107298;27;20388;-45
2023/07/25 08:53:55;;;;;;;5.75;1.40;;;;;;;;;;5110158;27;20604;-45
2023/07/25 08:56:22;;;;;;;2.58;1.00;;;;;;;;;;5095545;27;20554;-45
2023/07/25 08:58:47;;;;;;;2.55;1.23;;;;;;;;;;5103923;27;20151;-45
2023/07/25 09:01:13;;;;;;;2.92;1.10;;;;;;;;;;5095448;27;20110;-46
2023/07/25 09:03:39;;;;;;;2.25;1.15;;;;;;;;;;5109541;28;20069;-46
2023/07/25 09:06:05;;;;;;;3.95;1.30;;;;;;;;;;5110284;27;20068;-45
2023/07/25 09:08:30;;;;;;;4.68;1.27;;;;;;;;;;5101382;27;20454;-45
2023/07/25 09:10:57;;;;;;;1.88;1.10;;;;;;;;;;5111540;27;20514;-46
2023/07/25 09:13:23;;;;;;;3.45;1.35;;;;;;;;;;5112644;27;20026;-46
2023/07/25 09:15:48;;;;;;;4.53;1.07;;;;;;;;;;5092317;27;20032;-45
2023/07/25 09:18:13;;;;;;;4.83;1.80;;;;;;;;;;5103316;27;20767;-46
2023/07/25 09:20:39;;;;;;;4.93;1.10;;;;;;;;;;5111954;27;20348;-46
2023/07/25 09:23:04;;;;;;;5.03;1.88;;;;;;;;;;5107532;27;20028;-45
2023/07/25 09:25:30;;;;;;;4.07;1.00;;;;;;;;;;5110256;27;20115;-47
2023/07/25 09:27:55;;;;;;;5.13;1.70;;;;;;;;;;5102071;27;20654;-46
2023/07/25 09:30:25;;;;;;;2.08;0.90;;;;;;;;;;5101191;27;20348;-46
2023/07/25 09:32:50;;;;;;;1.70;0.73;;;;;;;;;;5112727;27;20015;-46
2023/07/25 09:35:15;;;;;;;2.97;1.07;;;;;;;;;;5099753;27;20470;-45
2023/07/25 09:37:41;;;;;;;4.50;1.00;;;;;;;;;;5110621;27;20020;-46
2023/07/25 09:40:10;;;;;;;3.90;1.02;;;;;;;;;;5098551;27;20028;-45
2023/07/25 09:42:39;;;;;;;2.72;1.20;;;;;;;;;;5095845;27;20036;-46
2023/07/25 09:45:07;;;;;;;2.25;0.85;;;;;;;;;;5108863;27;20020;-48
2023/07/25 09:47:32;;;;;;;3.40;0.90;;;;;;;;;;5096935;28;20032;-47
2023/07/25 09:49:57;;;;;;;2.57;0.90;;;;;;;;;;5108891;27;20160;-46
2023/07/25 09:52:23;;;;;;;5.73;1.07;;;;;;;;;;5107275;27;20260;-47
2023/07/25 09:54:48;;;;;;;3.87;1.23;;;;;;;;;;5098555;28;20307;-45
2023/07/25 09:57:13;;;;;;;7.37;3.03;;;;;;;;;;5106771;27;20277;-45
2023/07/25 09:59:39;;;;;;;2.47;1.05;;;;;;;;;;5105549;28;20330;-45
2023/07/25 10:02:04;;;;;;;4.50;1.17;;;;;;;;;;5110322;27;20040;-47
2023/07/25 10:04:29;;;;;;;8.82;2.80;;;;;;;;;;5111685;27;20026;-46
2023/07/25 10:06:56;;;;;;;5.40;1.15;;;;;;;;;;5107858;28;20019;-47
2023/07/25 10:09:23;;;;;;;2.75;0.90;;;;;;;;;;5101535;27;20016;-46
2023/07/25 10:11:50;;;;;;;4.03;0.98;;;;;;;;;;5111399;27;20030;-46
2023/07/25 10:14:15;;;;;;;5.13;0.95;;;;;;;;;;5101092;27;20051;-47
2023/07/25 10:16:41;;;;;;;3.80;1.00;;;;;;;;;;5093056;28;20016;-45
2023/07/25 10:19:06;;;;;;;1.42;0.57;;;;;;;;;;5098828;28;20119;-46
2023/07/25 10:22:07;;;;;;;3.33;1.00;;;;;;;;;;5106945;27;20016;-47
2023/07/25 10:24:33;;;;;;;3.75;1.00;;;;;;;;;;5045511;28;20529;-47
2023/07/25 10:26:59;;;;;;;3.70;1.20;;;;;;;;;;5088292;27;20036;-46
2023/07/25 10:29:34;;;;;;;5.97;1.17;;;;;;;;;;5106048;27;20019;-48
2023/07/25 10:32:00;;;;;;;5.68;1.73;;;;;;;;;;5117362;27;20022;-46
2023/07/25 10:34:36;;;;;;;3.73;1.20;;;;;;;;;;5103703;27;20020;-45
2023/07/25 10:37:20;;;;;;;3.35;1.23;;;;;;;;;;5081211;28;20015;-46
2023/07/25 10:39:45;;;;;;;2.75;0.80;;;;;;;;;;5102114;27;20021;-46
2023/07/25 10:42:15;;;;;;;4.63;1.30;;;;;;;;;;5102588;27;20035;-46
2023/07/25 10:44:40;;;;;;;2.92;1.05;;;;;;;;;;5110471;28;20034;-46
2023/07/25 10:47:24;;;;;;;2.83;0.97;;;;;;;;;;5101420;28;20032;-46
2023/07/25 10:49:56;;;;;;;4.53;1.83;;;;;;;;;;5111815;27;20127;-46
2023/07/25 10:52:40;;;;;;;4.38;1.08;;;;;;;;;;5109013;27;20033;-45
2023/07/25 10:55:05;;;;;;;3.55;1.13;;;;;;;;;;5104603;28;20539;-45
2023/07/25 10:57:30;;;;;;;2.13;0.95;;;;;;;;;;5100572;28;20035;-45
2023/07/25 10:59:56;;;;;;;3.50;1.23;;;;;;;;;;5108158;28;20037;-45
2023/07/25 11:02:34;;;;;;;4.30;0.93;;;;;;;;;;5087648;28;20035;-46
2023/07/25 11:05:25;;;;;;;2.15;1.00;;;;;;;;;;5109531;28;20026;-46
2023/07/25 11:07:52;;;;;;;1.90;0.90;;;;;;;;;;5097667;28;20072;-45
2023/07/25 11:10:24;;;;;;;4.85;1.50;;;;;;;;;;5097186;28;20263;-46
2023/07/25 11:12:54;;;;;;;4.65;1.13;;;;;;;;;;5106185;28;20588;-46
2023/07/25 11:15:19;;;;;;;3.85;1.23;;;;;;;;;;5115532;28;20023;-46
2023/07/25 11:17:44;;;;;;;3.13;1.17;;;;;;;;;;5112012;28;20022;-45
2023/07/25 11:20:30;;;;;;;12.65;6.90;;;;;;;;;;5117527;28;20028;-45
2023/07/25 11:22:55;;;;;;;7.13;1.52;;;;;;;;;;5112375;27;20095;-45
2023/07/25 11:25:20;;;;;;;2.63;1.33;;;;;;;;;;5111515;27;20567;-45
2023/07/25 11:27:46;;;;;;;3.00;1.85;;;;;;;;;;5103995;27;20023;-46
2023/07/25 11:30:13;;;;;;;4.05;0.95;;;;;;;;;;5108807;27;20032;-46
2023/07/25 11:32:39;;;;;;;2.78;1.30;;;;;;;;;;5106585;27;20101;-46
2023/07/25 11:35:05;;;;;;;3.35;1.23;;;;;;;;;;5108230;28;20050;-45
2023/07/25 11:37:30;;;;;;;3.35;1.17;;;;;;;;;;5109840;27;20032;-46
2023/07/25 11:39:55;;;;;;;4.93;1.20;;;;;;;;;;5116047;27;20381;-45
2023/07/25 11:42:21;;;;;;;7.40;1.03;;;;;;;;;;5100133;27;20064;-45
2023/07/25 11:44:47;;;;;;;3.22;0.98;;;;;;;;;;5104626;28;20030;-46
2023/07/25 11:47:13;;;;;;;1.70;0.73;;;;;;;;;;5112294;27;20088;-46
2023/07/25 11:49:38;;;;;;;1.13;0.60;;;;;;;;;;5095137;28;20415;-46
2023/07/25 11:52:04;;;;;;;4.32;1.35;;;;;;;;;;5111795;27;20023;-45
2023/07/25 11:54:29;;;;;;;3.13;1.02;;;;;;;;;;5108504;27;20023;-46
2023/07/25 11:56:55;;;;;;;4.35;1.25;;;;;;;;;;5110313;27;20098;-46
2023/07/25 11:59:20;;;;;;;5.20;1.30;;;;;;;;;;5100112;27;20106;-45
2023/07/25 12:01:45;;;;;;;3.63;0.90;;;;;;;;;;5097319;28;20685;-45
2023/07/25 12:04:15;;;;;;;2.72;1.08;;;;;;;;;;5112364;27;20477;-47
2023/07/25 12:06:41;;;;;;;2.95;1.10;;;;;;;;;;5106105;27;20039;-45
2023/07/25 12:09:06;;;;;;;2.53;0.85;;;;;;;;;;5107479;27;20020;-45
2023/07/25 12:11:39;;;;;;;3.50;1.10;;;;;;;;;;5112878;27;20039;-45
2023/07/25 12:14:08;;;;;;;3.97;1.20;;;;;;;;;;5110714;28;20041;-45
2023/07/25 12:16:35;;;;;;;2.85;1.30;;;;;;;;;;5101651;27;20504;-45
2023/07/25 12:19:03;;;;;;;7.45;1.30;;;;;;;;;;5078858;27;20028;-46
2023/07/25 12:21:29;;;;;;;5.75;2.47;;;;;;;;;;5114875;27;20035;-45
2023/07/25 12:23:57;;;;;;;4.45;1.30;;;;;;;;;;5114667;27;20051;-45
2023/07/25 12:26:22;;;;;;;2.50;1.48;;;;;;;;;;5103536;27;20035;-45
2023/07/25 12:28:48;;;;;;;3.53;1.30;;;;;;;;;;5111586;27;20072;-47
2023/07/25 12:31:14;;;;;;;4.40;1.08;;;;;;;;;;5101749;27;20032;-46
2023/07/25 12:33:39;;;;;;;4.05;0.93;;;;;;;;;;5106171;27;20027;-45
2023/07/25 12:36:05;;;;;;;3.38;1.55;;;;;;;;;;5102335;27;20027;-45
2023/07/25 12:38:30;;;;;;;4.05;1.20;;;;;;;;;;5111042;28;20019;-46
2023/07/25 12:40:55;;;;;;;3.43;1.03;;;;;;;;;;5110603;27;20026;-45
2023/07/25 12:43:20;;;;;;;3.00;1.00;;;;;;;;;;5101823;28;20020;-45
2023/07/25 12:45:46;;;;;;;4.63;1.20;;;;;;;;;;5117082;27;20277;-45
2023/07/25 12:48:12;;;;;;;3.97;1.50;;;;;;;;;;5107213;28;20349;-45
2023/07/25 12:50:39;;;;;;;5.88;2.15;;;;;;;;;;5109031;27;20019;-45
2023/07/25 12:53:04;;;;;;;3.80;1.40;;;;;;;;;;5109809;27;20018;-45
2023/07/25 12:55:29;;;;;;;2.67;1.15;;;;;;;;;;5109254;27;20019;-45
2023/07/25 12:57:54;;;;;;;3.60;1.57;;;;;;;;;;5110942;27;20077;-45
2023/07/25 13:00:20;;;;;;;5.93;1.50;;;;;;;;;;5111335;27;20031;-45
2023/07/25 13:02:45;;;;;;;4.82;1.60;;;;;;;;;;5109734;27;20035;-45
2023/07/25 13:05:11;;;;;;;4.63;1.20;;;;;;;;;;5105480;27;20030;-45
2023/07/25 13:07:36;;;;;;;3.07;1.67;;;;;;;;;;5109495;27;20035;-45
2023/07/25 13:10:02;;;;;;;3.10;1.25;;;;;;;;;;5094145;28;20265;-46
2023/07/25 13:12:27;;;;;;;5.80;1.88;;;;;;;;;;5108289;27;20035;-45
2023/07/25 13:14:52;;;;;;;2.20;1.00;;;;;;;;;;5109070;27;20023;-45
2023/07/25 13:17:17;;;;;;;4.10;1.27;;;;;;;;;;5096413;28;20054;-47
2023/07/25 13:19:43;;;;;;;4.80;0.90;;;;;;;;;;5105059;27;20392;-45
2023/07/25 13:22:08;;;;;;;3.97;1.07;;;;;;;;;;5094330;27;20273;-46
2023/07/25 13:24:33;;;;;;;7.77;2.30;;;;;;;;;;5096173;27;20060;-45
2023/07/25 13:26:58;;;;;;;3.10;1.10;;;;;;;;;;5070205;27;20277;-46
2023/07/25 13:29:24;;;;;;;2.23;0.80;;;;;;;;;;5095108;28;20020;-45
2023/07/25 13:31:49;;;;;;;3.72;1.10;;;;;;;;;;5105930;27;20103;-45
2023/07/25 13:34:14;;;;;;;1.30;0.80;;;;;;;;;;5101674;27;20051;-46
2023/07/25 13:36:39;;;;;;;2.40;0.90;;;;;;;;;;5104792;27;20508;-45
2023/07/25 13:39:05;;;;;;;2.70;0.93;;;;;;;;;;5098657;27;21341;-45
2023/07/25 13:41:31;;;;;;;3.20;0.88;;;;;;;;;;5109112;27;20347;-45
2023/07/25 13:43:56;;;;;;;5.50;1.38;;;;;;;;;;5095201;27;20020;-45
2023/07/25 13:46:21;;;;;;;5.10;1.17;;;;;;;;;;5095522;28;20084;-47
2023/07/25 13:48:47;;;;;;;2.13;0.80;;;;;;;;;;5101076;28;20114;-46
2023/07/25 13:51:13;;;;;;;2.13;1.00;;;;;;;;;;5088010;27;20794;-46
2023/07/25 13:53:38;;;;;;;1.95;1.00;;;;;;;;;;5105597;27;20106;-45
2023/07/25 13:56:03;;;;;;;5.57;0.93;;;;;;;;;;5106172;27;20024;-45
2023/07/25 13:58:29;;;;;;;5.22;0.88;;;;;;;;;;5100762;28;20273;-46
2023/07/25 14:00:54;;;;;;;4.57;0.93;;;;;;;;;;5105388;27;20016;-46
2023/07/25 14:03:19;;;;;;;2.75;1.15;;;;;;;;;;5092129;28;20322;-46
2023/07/25 14:05:45;;;;;;;2.75;1.05;;;;;;;;;;5105812;27;20027;-46
2023/07/25 14:08:10;;;;;;;2.60;0.90;;;;;;;;;;5099194;28;20027;-46
2023/07/25 14:10:36;;;;;;;7.32;1.92;;;;;;;;;;5098317;27;20618;-45
2023/07/25 14:13:01;;;;;;;3.85;1.00;;;;;;;;;;5098991;27;20075;-46
2023/07/25 14:15:26;;;;;;;2.88;1.23;;;;;;;;;;5104395;27;20028;-46
2023/07/25 14:17:52;;;;;;;4.35;1.23;;;;;;;;;;5080124;28;20100;-46
2023/07/25 14:20:17;;;;;;;7.63;1.10;;;;;;;;;;5099342;28;20096;-46
2023/07/25 14:22:42;;;;;;;4.18;1.00;;;;;;;;;;5099500;27;20028;-46
2023/07/25 14:25:08;;;;;;;2.70;0.93;;;;;;;;;;5096972;28;20027;-47
2023/07/25 14:27:33;;;;;;;4.25;1.10;;;;;;;;;;5105598;27;20371;-45
2023/07/25 14:29:58;;;;;;;8.65;1.05;;;;;;;;;;5107746;28;20023;-47
2023/07/25 14:32:24;;;;;;;2.55;1.10;;;;;;;;;;5102273;27;20022;-45